createdAt,value
2017-01-24T00:00:22.128Z,0.42
2017-01-24T00:01:22.109Z,0.52
2017-01-24T00:02:22.082Z,0.45
2017-01-24T00:03:22.058Z,0.52
2017-01-24T00:04:22.031Z,0.36
2017-01-24T00:05:22.042Z,0.39
2017-01-24T00:06:22.393Z,0.49
2017-01-24T00:07:21.966Z,0.46
2017-01-24T00:08:21.953Z,0.46
2017-01-24T00:09:21.924Z,0.52
2017-01-24T00:10:21.897Z,0.51
2017-01-24T00:11:21.877Z,0.43
2017-01-24T00:12:21.853Z,0.45
2017-01-24T00:13:21.830Z,0.39
2017-01-24T00:14:21.810Z,0.41
2017-01-24T00:15:21.797Z,0.45
2017-01-24T00:16:21.766Z,0.41
2017-01-24T00:17:21.739Z,0.43
2017-01-24T00:18:21.717Z,0.34
2017-01-24T00:19:21.695Z,0.42
2017-01-24T00:20:21.722Z,0.39
2017-01-24T00:21:21.659Z,0.43
2017-01-24T00:22:21.623Z,0.41
2017-01-24T00:23:21.602Z,0.43
2017-01-24T00:24:21.983Z,0.42
2017-01-24T00:25:21.564Z,0.39
2017-01-24T00:26:21.582Z,0.48
2017-01-24T00:27:21.519Z,0.52
2017-01-24T00:28:21.494Z,0.43
2017-01-24T00:29:21.470Z,0.42
2017-01-24T00:30:21.444Z,0.38
2017-01-24T00:31:21.423Z,0.38
2017-01-24T00:32:21.404Z,0.39
2017-01-24T00:33:21.375Z,0.39
2017-01-24T00:34:21.353Z,0.41
2017-01-24T00:35:21.329Z,0.41
2017-01-24T00:36:21.310Z,0.41
2017-01-24T00:37:21.287Z,0.42
2017-01-24T00:38:21.269Z,0.48
2017-01-24T00:39:21.244Z,0.38
2017-01-24T00:40:21.218Z,0.43
2017-01-24T00:41:21.198Z,0.52
2017-01-24T00:42:21.171Z,0.48
2017-01-24T00:43:21.170Z,0.48
2017-01-24T00:44:21.128Z,0.42
2017-01-24T00:45:21.106Z,0.43
2017-01-24T00:46:21.081Z,0.39
2017-01-24T00:47:21.061Z,0.43
2017-01-24T00:48:21.038Z,0.43
2017-01-24T00:49:21.019Z,0.39
2017-01-24T00:50:20.986Z,0.42
2017-01-24T00:51:20.966Z,0.38
2017-01-24T00:52:20.947Z,0.38
2017-01-24T00:53:20.929Z,0.43
2017-01-24T00:54:20.898Z,0.41
2017-01-24T00:55:20.882Z,0.36
2017-01-24T00:56:20.854Z,0.39
2017-01-24T00:57:20.835Z,0.42
2017-01-24T00:58:20.808Z,0.46
2017-01-24T00:59:20.790Z,0.43
2017-01-24T01:00:20.765Z,0.48
2017-01-24T01:01:20.738Z,0.48
2017-01-24T01:02:20.719Z,0.45
2017-01-24T01:03:20.700Z,0.41
2017-01-24T01:04:20.672Z,0.45
2017-01-24T01:05:20.646Z,0.42
2017-01-24T01:06:20.629Z,0.41
2017-01-24T01:07:20.609Z,0.42
2017-01-24T01:08:20.596Z,0.36
2017-01-24T01:09:20.561Z,0.45
2017-01-24T01:10:20.537Z,0.38
2017-01-24T01:11:20.516Z,0.38
2017-01-24T01:12:20.491Z,0.43
2017-01-24T01:13:20.471Z,0.38
2017-01-24T01:14:20.443Z,0.48
2017-01-24T01:15:20.424Z,0.39
2017-01-24T01:16:20.400Z,0.41
2017-01-24T01:17:20.382Z,0.45
2017-01-24T01:18:20.351Z,0.41
2017-01-24T01:19:20.332Z,0.45
2017-01-24T01:20:20.310Z,0.39
2017-01-24T01:21:20.285Z,0.43
2017-01-24T01:22:20.264Z,0.46
2017-01-24T01:23:20.238Z,0.42
2017-01-24T01:24:20.233Z,0.41
2017-01-24T01:25:20.604Z,0.34
2017-01-24T01:26:20.196Z,0.41
2017-01-24T01:27:20.158Z,0.43
2017-01-24T01:28:20.129Z,0.43
2017-01-24T01:29:20.109Z,0.42
2017-01-24T01:30:20.092Z,0.46
2017-01-24T01:31:20.459Z,0.46
2017-01-24T01:32:20.040Z,0.49
2017-01-24T01:33:20.014Z,0.48
2017-01-24T01:34:20.024Z,0.48
2017-01-24T01:35:19.969Z,0.48
2017-01-24T01:36:19.949Z,0.39
2017-01-24T01:37:19.924Z,0.43
2017-01-24T01:38:19.907Z,0.46
2017-01-24T01:39:19.881Z,0.48
2017-01-24T01:40:19.857Z,0.48
2017-01-24T01:41:19.841Z,0.39
2017-01-24T01:42:19.813Z,0.51
2017-01-24T01:43:19.788Z,0.39
2017-01-24T01:44:19.772Z,0.49
2017-01-24T01:45:19.740Z,0.52
2017-01-24T01:46:19.720Z,0.45
2017-01-24T01:47:19.702Z,0.49
2017-01-24T01:48:19.678Z,0.51
2017-01-24T01:49:19.652Z,0.42
2017-01-24T01:50:19.635Z,0.38
2017-01-24T01:51:19.609Z,0.43
2017-01-24T01:52:19.582Z,0.39
2017-01-24T01:53:19.562Z,0.39
2017-01-24T01:54:19.537Z,0.43
2017-01-24T01:55:19.718Z,0.42
2017-01-24T01:56:19.491Z,0.41
2017-01-24T01:57:19.471Z,0.39
2017-01-24T01:58:19.453Z,0.36
2017-01-24T01:59:19.429Z,0.43
2017-01-24T02:00:19.405Z,0.41
2017-01-24T02:01:19.380Z,0.38
2017-01-24T02:02:19.358Z,0.41
2017-01-24T02:03:19.334Z,0.43
2017-01-24T02:04:19.308Z,0.43
2017-01-24T02:05:19.290Z,0.41
2017-01-24T02:06:19.269Z,0.41
2017-01-24T02:07:19.238Z,0.49
2017-01-24T02:08:19.224Z,0.43
2017-01-24T02:09:19.196Z,0.41
2017-01-24T02:10:19.182Z,0.45
2017-01-24T02:11:19.148Z,0.48
2017-01-24T02:12:19.138Z,0.45
2017-01-24T02:13:19.104Z,0.49
2017-01-24T02:14:19.478Z,0.52
2017-01-24T02:15:19.070Z,0.48
2017-01-24T02:16:19.056Z,0.52
2017-01-24T02:17:19.018Z,0.45
2017-01-24T02:18:18.992Z,0.52
2017-01-24T02:19:18.973Z,0.48
2017-01-24T02:20:19.341Z,0.52
2017-01-24T02:21:18.923Z,0.51
2017-01-24T02:22:18.899Z,0.57
2017-01-24T02:23:18.910Z,0.43
2017-01-24T02:24:18.860Z,0.48
2017-01-24T02:25:18.830Z,0.57
2017-01-24T02:26:18.808Z,0.49
2017-01-24T02:27:18.788Z,0.48
2017-01-24T02:28:18.762Z,0.49
2017-01-24T02:29:18.741Z,0.51
2017-01-24T02:30:18.727Z,0.53
2017-01-24T02:31:18.700Z,0.51
2017-01-24T02:32:18.673Z,0.57
2017-01-24T02:33:19.047Z,0.51
2017-01-24T02:34:18.621Z,0.58
2017-01-24T02:35:18.610Z,0.52
2017-01-24T02:36:18.582Z,0.6
2017-01-24T02:37:18.556Z,0.53
2017-01-24T02:38:18.536Z,0.49
2017-01-24T02:39:18.513Z,0.57
2017-01-24T02:40:18.487Z,0.52
2017-01-24T02:41:18.468Z,0.57
2017-01-24T02:42:18.449Z,0.61
2017-01-24T02:43:18.818Z,0.57
2017-01-24T02:44:18.438Z,0.64
2017-01-24T02:45:18.381Z,0.64
2017-01-24T02:46:18.410Z,0.64
2017-01-24T02:47:18.735Z,0.6
2017-01-24T02:48:18.304Z,0.62
2017-01-24T02:49:18.297Z,0.62
2017-01-24T02:50:18.264Z,0.67
2017-01-24T02:51:18.245Z,0.68
2017-01-24T02:52:18.218Z,0.65
2017-01-24T02:53:18.207Z,0.67
2017-01-24T02:54:18.222Z,0.64
2017-01-24T02:55:18.155Z,0.65
2017-01-24T02:56:18.129Z,0.67
2017-01-24T02:57:18.174Z,0.65
2017-01-24T02:58:18.089Z,0.62
2017-01-24T02:59:18.067Z,0.62
2017-01-24T03:00:18.048Z,0.7
2017-01-24T03:01:18.020Z,0.7
2017-01-24T03:02:17.990Z,0.67
2017-01-24T03:03:17.979Z,0.65
2017-01-24T03:04:17.954Z,0.68
2017-01-24T03:05:17.928Z,0.68
2017-01-24T03:06:17.903Z,0.67
2017-01-24T03:07:17.884Z,0.62
2017-01-24T03:08:17.860Z,0.65
2017-01-24T03:09:18.241Z,0.65
2017-01-24T03:10:18.212Z,0.65
2017-01-24T03:11:17.800Z,0.64
2017-01-24T03:12:17.771Z,0.61
2017-01-24T03:13:17.747Z,0.61
2017-01-24T03:14:17.790Z,0.6
2017-01-24T03:15:17.713Z,0.61
2017-01-24T03:16:17.680Z,0.62
2017-01-24T03:17:18.061Z,0.58
2017-01-24T03:18:17.646Z,0.64
2017-01-24T03:19:17.614Z,0.61
2017-01-24T03:20:17.626Z,0.64
2017-01-24T03:21:17.568Z,0.58
2017-01-24T03:22:17.547Z,0.65
2017-01-24T03:23:17.527Z,0.6
2017-01-24T03:24:17.953Z,0.68
2017-01-24T03:25:17.484Z,0.6
2017-01-24T03:26:17.455Z,0.58
2017-01-24T03:27:17.438Z,0.67
2017-01-24T03:28:17.814Z,0.68
2017-01-24T03:29:17.392Z,0.62
2017-01-24T03:30:17.365Z,0.65
2017-01-24T03:31:17.349Z,0.67
2017-01-24T03:32:17.324Z,0.67
2017-01-24T03:33:17.301Z,0.7
2017-01-24T03:34:17.278Z,0.68
2017-01-24T03:35:17.258Z,0.7
2017-01-24T03:36:17.236Z,0.75
2017-01-24T03:37:17.211Z,0.7
2017-01-24T03:38:17.195Z,0.71
2017-01-24T03:39:17.186Z,0.67
2017-01-24T03:40:17.147Z,0.75
2017-01-24T03:41:17.131Z,0.64
2017-01-24T03:42:17.098Z,0.68
2017-01-24T03:43:17.078Z,0.71
2017-01-24T03:44:17.055Z,0.7
2017-01-24T03:45:17.032Z,0.76
2017-01-24T03:46:17.012Z,0.7
2017-01-24T03:47:16.987Z,0.79
2017-01-24T03:48:16.972Z,0.71
2017-01-24T03:49:16.946Z,0.75
2017-01-24T03:50:16.926Z,0.68
2017-01-24T03:51:16.900Z,0.72
2017-01-24T03:52:16.883Z,0.76
2017-01-24T03:53:17.253Z,0.76
2017-01-24T03:54:16.832Z,0.72
2017-01-24T03:55:17.015Z,0.72
2017-01-24T03:56:16.791Z,0.68
2017-01-24T03:57:16.769Z,0.7
2017-01-24T03:58:16.745Z,0.71
2017-01-24T03:59:16.721Z,0.71
2017-01-24T04:00:16.705Z,0.71
2017-01-24T04:01:16.727Z,0.65
2017-01-24T04:02:16.656Z,0.79
2017-01-24T04:03:16.637Z,0.67
2017-01-24T04:04:16.612Z,0.71
2017-01-24T04:05:16.586Z,0.67
2017-01-24T04:06:16.567Z,0.76
2017-01-24T04:07:16.544Z,0.7
2017-01-24T04:08:16.525Z,0.71
2017-01-24T04:09:16.509Z,0.67
2017-01-24T04:10:16.530Z,0.68
2017-01-24T04:11:16.855Z,0.72
2017-01-24T04:12:16.436Z,0.65
2017-01-24T04:13:16.412Z,0.79
2017-01-24T04:14:16.789Z,0.72
2017-01-24T04:15:16.372Z,0.7
2017-01-24T04:16:16.343Z,0.78
2017-01-24T04:17:16.326Z,0.72
2017-01-24T04:18:16.704Z,0.67
2017-01-24T04:19:16.276Z,0.75
2017-01-24T04:20:16.252Z,0.7
2017-01-24T04:21:16.637Z,0.75
2017-01-24T04:22:16.212Z,0.71
2017-01-24T04:23:16.186Z,0.67
2017-01-24T04:24:16.165Z,0.75
2017-01-24T04:25:16.187Z,0.79
2017-01-24T04:26:16.124Z,0.79
2017-01-24T04:27:16.102Z,0.75
2017-01-24T04:28:16.104Z,0.79
2017-01-24T04:29:16.052Z,0.72
2017-01-24T04:30:16.065Z,0.7
2017-01-24T04:31:16.013Z,0.82
2017-01-24T04:32:15.988Z,0.75
2017-01-24T04:33:15.967Z,0.75
2017-01-24T04:34:15.944Z,0.79
2017-01-24T04:35:15.921Z,0.78
2017-01-24T04:36:15.902Z,0.78
2017-01-24T04:37:15.878Z,0.71
2017-01-24T04:38:16.256Z,0.71
2017-01-24T04:39:15.856Z,0.79
2017-01-24T04:40:15.817Z,0.67
2017-01-24T04:41:15.784Z,0.75
2017-01-24T04:42:15.772Z,0.79
2017-01-24T04:43:15.744Z,0.78
2017-01-24T04:44:15.724Z,0.76
2017-01-24T04:45:15.702Z,0.79
2017-01-24T04:46:15.695Z,0.8
2017-01-24T04:47:15.657Z,0.82
2017-01-24T04:48:15.637Z,0.75
2017-01-24T04:49:15.613Z,0.82
2017-01-24T04:50:15.596Z,0.68
2017-01-24T04:51:15.569Z,0.79
2017-01-24T04:52:15.555Z,0.79
2017-01-24T04:53:15.528Z,0.85
2017-01-24T04:54:15.503Z,0.8
2017-01-24T04:55:15.479Z,0.79
2017-01-24T04:56:15.456Z,0.85
2017-01-24T04:57:15.435Z,0.75
2017-01-24T04:58:15.412Z,0.75
2017-01-24T04:59:15.381Z,0.76
2017-01-24T05:00:15.372Z,0.71
2017-01-24T05:01:15.344Z,0.68
2017-01-24T05:02:15.720Z,0.82
2017-01-24T05:03:15.304Z,0.76
2017-01-24T05:04:15.276Z,0.79
2017-01-24T05:05:15.253Z,0.8
2017-01-24T05:06:15.248Z,0.79
2017-01-24T05:07:15.208Z,0.8
2017-01-24T05:08:15.191Z,0.79
2017-01-24T05:09:15.168Z,0.7
2017-01-24T05:10:15.206Z,0.88
2017-01-24T05:11:15.122Z,0.78
2017-01-24T05:12:15.111Z,0.76
2017-01-24T05:13:15.077Z,0.82
2017-01-24T05:14:15.057Z,0.79
2017-01-24T05:15:15.030Z,0.85
2017-01-24T05:16:15.014Z,0.85
2017-01-24T05:17:14.992Z,0.8
2017-01-24T05:18:14.969Z,0.72
2017-01-24T05:19:14.949Z,0.85
2017-01-24T05:20:14.929Z,0.89
2017-01-24T05:21:14.910Z,0.82
2017-01-24T05:22:14.880Z,0.79
2017-01-24T05:23:14.862Z,0.85
2017-01-24T05:24:14.838Z,0.85
2017-01-24T05:25:14.809Z,0.79
2017-01-24T05:26:14.849Z,0.83
2017-01-24T05:27:14.771Z,0.82
2017-01-24T05:28:14.745Z,0.85
2017-01-24T05:29:14.727Z,0.83
2017-01-24T05:30:14.707Z,0.85
2017-01-24T05:31:14.685Z,0.76
2017-01-24T05:32:14.688Z,0.79
2017-01-24T05:33:14.643Z,0.79
2017-01-24T05:34:14.613Z,0.85
2017-01-24T05:35:14.597Z,0.83
2017-01-24T05:36:14.584Z,0.78
2017-01-24T05:37:14.551Z,0.82
2017-01-24T05:38:14.530Z,0.88
2017-01-24T05:39:14.514Z,0.83
2017-01-24T05:40:14.487Z,0.82
2017-01-24T05:41:14.466Z,0.8
2017-01-24T05:42:14.442Z,0.9
2017-01-24T05:43:14.421Z,0.86
2017-01-24T05:44:14.815Z,0.94
2017-01-24T05:45:14.436Z,0.85
2017-01-24T05:46:14.354Z,0.82
2017-01-24T05:47:14.337Z,0.97
2017-01-24T05:48:14.315Z,0.86
2017-01-24T05:49:14.288Z,0.94
2017-01-24T05:50:14.272Z,0.96
2017-01-24T05:51:14.243Z,0.83
2017-01-24T05:52:14.216Z,0.82
2017-01-24T05:53:14.201Z,0.94
2017-01-24T05:54:14.175Z,0.96
2017-01-24T05:55:14.429Z,0.85
2017-01-24T05:56:14.528Z,0.94
2017-01-24T05:57:14.112Z,0.82
2017-01-24T05:58:14.090Z,0.82
2017-01-24T05:59:14.072Z,0.92
2017-01-24T06:00:14.043Z,0.83
2017-01-24T06:01:14.023Z,0.83
2017-01-24T06:02:14.042Z,0.94
2017-01-24T06:03:13.992Z,0.79
2017-01-24T06:04:13.971Z,0.96
2017-01-24T06:05:13.927Z,0.85
2017-01-24T06:06:13.911Z,0.85
2017-01-24T06:07:13.889Z,0.82
2017-01-24T06:08:13.874Z,0.88
2017-01-24T06:09:13.845Z,0.83
2017-01-24T06:10:13.829Z,0.85
2017-01-24T06:11:14.013Z,0.83
2017-01-24T06:12:13.796Z,0.85
2017-01-24T06:13:13.759Z,0.92
2017-01-24T06:14:13.749Z,0.85
2017-01-24T06:15:13.714Z,0.79
2017-01-24T06:16:13.685Z,0.9
2017-01-24T06:17:13.764Z,0.76
2017-01-24T06:18:13.647Z,0.88
2017-01-24T06:19:13.633Z,0.83
2017-01-24T06:20:13.600Z,0.83
2017-01-24T06:21:13.579Z,0.83
2017-01-24T06:22:13.960Z,0.86
2017-01-24T06:23:13.547Z,0.82
2017-01-24T06:24:13.514Z,0.75
2017-01-24T06:25:13.492Z,0.8
2017-01-24T06:26:13.472Z,0.82
2017-01-24T06:27:13.458Z,0.8
2017-01-24T06:28:13.440Z,0.83
2017-01-24T06:29:13.402Z,0.79
2017-01-24T06:30:13.390Z,0.85
2017-01-24T06:31:13.358Z,0.83
2017-01-24T06:32:13.343Z,0.76
2017-01-24T06:33:13.310Z,0.8
2017-01-24T06:34:13.290Z,0.89
2017-01-24T06:35:13.264Z,0.79
2017-01-24T06:36:13.246Z,0.83
2017-01-24T06:37:13.219Z,0.8
2017-01-24T06:38:13.202Z,0.82
2017-01-24T06:39:13.179Z,0.76
2017-01-24T06:40:13.157Z,0.79
2017-01-24T06:41:13.132Z,0.79
2017-01-24T06:42:13.117Z,0.78
2017-01-24T06:43:13.524Z,0.82
2017-01-24T06:44:13.072Z,0.82
2017-01-24T06:45:13.042Z,0.76
2017-01-24T06:46:13.025Z,0.89
2017-01-24T06:47:13.011Z,0.92
2017-01-24T06:48:12.976Z,0.86
2017-01-24T06:49:13.037Z,0.85
2017-01-24T06:50:12.929Z,0.79
2017-01-24T06:51:13.311Z,0.85
2017-01-24T06:52:12.885Z,0.85
2017-01-24T06:53:12.867Z,0.94
2017-01-24T06:54:12.847Z,0.86
2017-01-24T06:55:12.818Z,0.85
2017-01-24T06:56:12.793Z,0.82
2017-01-24T06:57:12.780Z,0.85
2017-01-24T06:58:12.754Z,0.86
2017-01-24T06:59:12.736Z,0.86
2017-01-24T07:00:12.712Z,0.86
2017-01-24T07:01:12.705Z,0.89
2017-01-24T07:02:12.665Z,0.83
2017-01-24T07:03:12.648Z,0.88
2017-01-24T07:04:12.620Z,0.86
2017-01-24T07:05:12.598Z,0.96
2017-01-24T07:06:12.628Z,0.9
2017-01-24T07:07:12.556Z,0.9
2017-01-24T07:08:12.530Z,0.94
2017-01-24T07:09:12.903Z,0.9
2017-01-24T07:10:12.487Z,0.94
2017-01-24T07:11:12.465Z,0.94
2017-01-24T07:12:12.442Z,0.97
2017-01-24T07:13:12.431Z,0.9
2017-01-24T07:14:12.395Z,1.04
2017-01-24T07:15:12.375Z,0.98
2017-01-24T07:16:12.743Z,1.01
2017-01-24T07:17:12.330Z,0.88
2017-01-24T07:18:12.305Z,0.98
2017-01-24T07:19:12.290Z,0.85
2017-01-24T07:20:12.264Z,0.92
2017-01-24T07:21:12.239Z,0.92
2017-01-24T07:22:12.217Z,0.97
2017-01-24T07:23:12.197Z,0.92
2017-01-24T07:24:12.175Z,1.01
2017-01-24T07:25:12.149Z,1
2017-01-24T07:26:12.129Z,1.01
2017-01-24T07:27:12.107Z,0.98
2017-01-24T07:28:12.087Z,0.98
2017-01-24T07:29:12.062Z,0.97
2017-01-24T07:30:12.044Z,1.06
2017-01-24T07:31:12.017Z,0.97
2017-01-24T07:32:12.002Z,1.06
2017-01-24T07:33:11.981Z,1.07
2017-01-24T07:34:11.957Z,1.01
2017-01-24T07:35:11.930Z,1.04
2017-01-24T07:36:11.905Z,1.01
2017-01-24T07:37:11.882Z,1
2017-01-24T07:38:11.865Z,1.07
2017-01-24T07:39:11.893Z,1.08
2017-01-24T07:40:11.833Z,1.07
2017-01-24T07:41:11.794Z,1.08
2017-01-24T07:42:11.777Z,1.08
2017-01-24T07:43:11.756Z,1.04
2017-01-24T07:44:11.730Z,1.06
2017-01-24T07:45:11.714Z,1.06
2017-01-24T07:46:11.689Z,1.1
2017-01-24T07:47:11.672Z,1.03
2017-01-24T07:48:11.641Z,0.98
2017-01-24T07:49:11.618Z,1.14
2017-01-24T07:50:11.601Z,1.03
2017-01-24T07:51:11.581Z,1.04
2017-01-24T07:52:11.556Z,1.15
2017-01-24T07:53:11.589Z,1.12
2017-01-24T07:54:11.512Z,1.12
2017-01-24T07:55:11.686Z,1.14
2017-01-24T07:56:11.494Z,1.15
2017-01-24T07:57:11.459Z,1.18
2017-01-24T07:58:11.426Z,1.19
2017-01-24T07:59:11.403Z,1.14
2017-01-24T08:00:11.380Z,1.18
2017-01-24T08:01:11.359Z,1.18
2017-01-24T08:02:11.369Z,1.19
2017-01-24T08:03:11.323Z,1.25
2017-01-24T08:04:11.287Z,1.21
2017-01-24T08:05:11.272Z,1.16
2017-01-24T08:06:11.245Z,1.24
2017-01-24T08:07:11.278Z,1.21
2017-01-24T08:08:11.204Z,1.22
2017-01-24T08:09:11.189Z,1.21
2017-01-24T08:10:11.161Z,1.16
2017-01-24T08:11:11.141Z,1.18
2017-01-24T08:12:11.127Z,1.16
2017-01-24T08:13:11.123Z,1.22
2017-01-24T08:14:11.466Z,1.25
2017-01-24T08:15:11.061Z,1.18
2017-01-24T08:16:11.024Z,1.21
2017-01-24T08:17:11.036Z,1.18
2017-01-24T08:18:10.990Z,1.22
2017-01-24T08:19:10.966Z,1.22
2017-01-24T08:20:10.956Z,1.29
2017-01-24T08:21:10.924Z,1.26
2017-01-24T08:22:10.902Z,1.29
2017-01-24T08:23:10.879Z,1.28
2017-01-24T08:24:10.856Z,1.37
2017-01-24T08:25:10.839Z,1.36
2017-01-24T08:26:10.814Z,1.33
2017-01-24T08:27:10.794Z,1.33
2017-01-24T08:28:10.772Z,1.37
2017-01-24T08:29:10.754Z,1.36
2017-01-24T08:30:10.735Z,1.37
2017-01-24T08:31:10.716Z,1.36
2017-01-24T08:32:10.692Z,1.36
2017-01-24T08:33:10.662Z,1.34
2017-01-24T08:34:10.640Z,1.43
2017-01-24T08:35:10.618Z,1.42
2017-01-24T08:36:10.627Z,1.46
2017-01-24T08:37:10.576Z,1.47
2017-01-24T08:38:10.556Z,1.47
2017-01-24T08:39:10.529Z,1.51
2017-01-24T08:40:10.512Z,1.37
2017-01-24T08:41:10.485Z,1.46
2017-01-24T08:42:10.467Z,1.46
2017-01-24T08:43:10.447Z,1.52
2017-01-24T08:44:10.422Z,1.44
2017-01-24T08:45:10.401Z,1.52
2017-01-24T08:46:10.435Z,1.55
2017-01-24T08:47:10.363Z,1.36
2017-01-24T08:48:10.339Z,1.33
2017-01-24T08:49:10.316Z,1.34
2017-01-24T08:50:10.293Z,1.37
2017-01-24T08:51:10.270Z,1.4
2017-01-24T08:52:10.252Z,1.37
2017-01-24T08:53:10.223Z,1.34
2017-01-24T08:54:10.213Z,1.37
2017-01-24T08:55:10.186Z,1.33
2017-01-24T08:56:10.167Z,1.39
2017-01-24T08:57:10.144Z,1.36
2017-01-24T08:58:10.143Z,1.37
2017-01-24T08:59:10.127Z,1.36
2017-01-24T09:00:10.078Z,1.39
2017-01-24T09:01:10.055Z,1.39
2017-01-24T09:02:10.033Z,1.39
2017-01-24T09:03:10.011Z,1.42
2017-01-24T09:04:09.993Z,1.46
2017-01-24T09:05:09.967Z,1.37
2017-01-24T09:06:09.953Z,1.36
2017-01-24T09:07:09.934Z,1.57
2017-01-24T09:08:09.906Z,1.51
2017-01-24T09:09:09.882Z,1.39
2017-01-24T09:10:10.307Z,1.46
2017-01-24T09:11:09.845Z,1.46
2017-01-24T09:12:09.846Z,1.51
2017-01-24T09:13:09.797Z,1.5
2017-01-24T09:14:10.180Z,1.54
2017-01-24T09:15:09.755Z,1.54
2017-01-24T09:16:09.737Z,1.54
2017-01-24T09:17:09.713Z,1.47
2017-01-24T09:18:09.694Z,1.52
2017-01-24T09:19:09.673Z,1.54
2017-01-24T09:20:09.659Z,1.61
2017-01-24T09:21:09.636Z,1.55
2017-01-24T09:22:09.606Z,1.55
2017-01-24T09:23:09.586Z,1.51
2017-01-24T09:24:09.571Z,1.52
2017-01-24T09:25:09.548Z,1.65
2017-01-24T09:26:09.554Z,1.57
2017-01-24T09:27:09.501Z,1.54
2017-01-24T09:28:09.483Z,1.58
2017-01-24T09:29:09.458Z,1.64
2017-01-24T09:30:09.445Z,1.64
2017-01-24T09:31:09.417Z,1.6
2017-01-24T09:32:09.400Z,1.64
2017-01-24T09:33:09.374Z,1.6
2017-01-24T09:34:09.351Z,1.65
2017-01-24T09:35:09.333Z,1.75
2017-01-24T09:36:09.315Z,1.78
2017-01-24T09:37:09.292Z,1.68
2017-01-24T09:38:09.680Z,1.69
2017-01-24T09:39:09.249Z,1.75
2017-01-24T09:40:09.245Z,1.79
2017-01-24T09:41:09.216Z,1.76
2017-01-24T09:42:09.191Z,1.8
2017-01-24T09:43:09.171Z,1.75
2017-01-24T09:44:09.143Z,1.87
2017-01-24T09:45:09.147Z,1.85
2017-01-24T09:46:09.113Z,1.83
2017-01-24T09:47:09.088Z,1.83
2017-01-24T09:48:09.061Z,1.91
2017-01-24T09:49:09.041Z,1.93
2017-01-24T09:50:09.028Z,1.98
2017-01-24T09:51:09.001Z,1.85
2017-01-24T09:52:08.983Z,1.99
2017-01-24T09:53:08.955Z,1.99
2017-01-24T09:54:08.937Z,1.93
2017-01-24T09:55:09.118Z,1.97
2017-01-24T09:56:08.893Z,1.94
2017-01-24T09:57:08.874Z,1.94
2017-01-24T09:58:09.251Z,1.98
2017-01-24T09:59:08.832Z,1.99
2017-01-24T10:00:08.809Z,1.93
2017-01-24T10:01:08.788Z,1.89
2017-01-24T10:02:08.783Z,1.94
2017-01-24T10:03:08.777Z,1.87
2017-01-24T10:04:08.730Z,1.94
2017-01-24T10:05:08.706Z,1.93
2017-01-24T10:06:08.691Z,2.01
2017-01-24T10:07:08.666Z,1.94
2017-01-24T10:08:08.650Z,1.97
2017-01-24T10:09:08.633Z,1.94
2017-01-24T10:10:08.605Z,1.94
2017-01-24T10:11:08.587Z,1.97
2017-01-24T10:12:08.571Z,1.98
2017-01-24T10:13:08.565Z,2.01
2017-01-24T10:14:08.523Z,1.97
2017-01-24T10:15:08.505Z,1.93
2017-01-24T10:16:08.482Z,1.97
2017-01-24T10:17:08.459Z,1.97
2017-01-24T10:18:08.438Z,1.9
2017-01-24T10:19:08.419Z,1.93
2017-01-24T10:20:08.401Z,1.99
2017-01-24T10:21:08.386Z,1.94
2017-01-24T10:22:08.359Z,1.93
2017-01-24T10:23:08.341Z,1.99
2017-01-24T10:24:08.324Z,1.94
2017-01-24T10:25:08.297Z,2.01
2017-01-24T10:26:08.275Z,1.98
2017-01-24T10:27:08.257Z,2.04
2017-01-24T10:28:08.233Z,2.04
2017-01-24T10:29:08.214Z,2.04
2017-01-24T10:30:08.196Z,2.04
2017-01-24T10:31:08.176Z,2.04
2017-01-24T10:32:08.156Z,2.09
2017-01-24T10:33:08.131Z,2.09
2017-01-24T10:34:08.109Z,2.12
2017-01-24T10:35:08.093Z,2.01
2017-01-24T10:36:08.080Z,2.02
2017-01-24T10:37:08.061Z,2.06
2017-01-24T10:38:08.027Z,2.2
2017-01-24T10:39:08.007Z,2.1
2017-01-24T10:40:07.988Z,2.15
2017-01-24T10:41:07.970Z,2.16
2017-01-24T10:42:07.953Z,2.12
2017-01-24T10:43:07.927Z,2.1
2017-01-24T10:44:07.910Z,2.16
2017-01-24T10:45:08.304Z,2.15
2017-01-24T10:46:07.871Z,2.15
2017-01-24T10:47:07.852Z,2.2
2017-01-24T10:48:07.829Z,2.31
2017-01-24T10:49:07.799Z,2.16
2017-01-24T10:50:07.786Z,2.22
2017-01-24T10:51:07.766Z,2.27
2017-01-24T10:52:07.739Z,2.28
2017-01-24T10:53:07.741Z,2.17
2017-01-24T10:54:08.101Z,2.2
2017-01-24T10:55:07.688Z,2.26
2017-01-24T10:56:07.659Z,2.28
2017-01-24T10:57:07.640Z,2.27
2017-01-24T10:58:07.624Z,2.27
2017-01-24T10:59:07.608Z,2.3
2017-01-24T11:00:07.579Z,2.34
2017-01-24T11:01:07.555Z,2.33
2017-01-24T11:02:07.540Z,2.37
2017-01-24T11:03:07.524Z,2.35
2017-01-24T11:04:07.503Z,2.31
2017-01-24T11:05:07.475Z,2.31
2017-01-24T11:06:07.460Z,2.37
2017-01-24T11:07:07.450Z,2.33
2017-01-24T11:08:07.425Z,2.4
2017-01-24T11:09:07.400Z,2.38
2017-01-24T11:10:07.387Z,2.4
2017-01-24T11:11:07.756Z,2.44
2017-01-24T11:12:07.353Z,2.35
2017-01-24T11:13:07.341Z,2.31
2017-01-24T11:14:07.303Z,2.38
2017-01-24T11:15:07.280Z,2.49
2017-01-24T11:16:07.655Z,2.4
2017-01-24T11:17:07.238Z,2.44
2017-01-24T11:18:07.211Z,2.38
2017-01-24T11:19:07.192Z,2.48
2017-01-24T11:20:07.177Z,2.51
2017-01-24T11:21:07.153Z,2.51
2017-01-24T11:22:07.140Z,2.52
2017-01-24T11:23:07.119Z,2.55
2017-01-24T11:24:07.098Z,2.55
2017-01-24T11:25:07.074Z,2.56
2017-01-24T11:26:07.054Z,2.51
2017-01-24T11:27:07.031Z,2.46
2017-01-24T11:28:07.012Z,2.56
2017-01-24T11:29:06.991Z,2.52
2017-01-24T11:30:06.970Z,2.55
2017-01-24T11:31:06.952Z,2.64
2017-01-24T11:32:06.934Z,2.59
2017-01-24T11:33:06.910Z,2.67
2017-01-24T11:34:06.898Z,2.64
2017-01-24T11:35:06.871Z,2.69
2017-01-24T11:36:06.860Z,2.63
2017-01-24T11:37:06.840Z,2.59
2017-01-24T11:38:06.812Z,2.69
2017-01-24T11:39:06.817Z,2.79
2017-01-24T11:40:06.780Z,2.63
2017-01-24T11:41:06.750Z,2.74
2017-01-24T11:42:06.744Z,2.69
2017-01-24T11:43:06.712Z,2.67
2017-01-24T11:44:07.093Z,2.73
2017-01-24T11:45:06.675Z,2.71
2017-01-24T11:46:06.655Z,2.77
2017-01-24T11:47:06.636Z,2.7
2017-01-24T11:48:06.610Z,2.74
2017-01-24T11:49:06.595Z,2.74
2017-01-24T11:50:06.611Z,2.64
2017-01-24T11:51:06.557Z,2.66
2017-01-24T11:52:06.533Z,2.64
2017-01-24T11:53:06.532Z,2.64
2017-01-24T11:54:06.503Z,2.53
2017-01-24T11:55:06.885Z,2.63
2017-01-24T11:56:06.477Z,2.58
2017-01-24T11:57:06.491Z,2.66
2017-01-24T11:58:06.418Z,2.66
2017-01-24T11:59:06.798Z,2.66
2017-01-24T12:00:06.375Z,2.59
2017-01-24T12:01:06.365Z,2.66
2017-01-24T12:02:06.342Z,2.64
2017-01-24T12:03:06.320Z,2.64
2017-01-24T12:04:06.304Z,2.58
2017-01-24T12:05:06.280Z,2.64
2017-01-24T12:06:06.261Z,2.59
2017-01-24T12:07:06.248Z,2.63
2017-01-24T12:08:06.225Z,2.61
2017-01-24T12:09:06.209Z,2.63
2017-01-24T12:10:06.580Z,2.61
2017-01-24T12:11:06.561Z,2.67
2017-01-24T12:12:06.536Z,2.79
2017-01-24T12:13:06.172Z,2.66
2017-01-24T12:14:06.143Z,2.81
2017-01-24T12:15:06.102Z,2.74
2017-01-24T12:16:06.063Z,2.69
2017-01-24T12:17:06.441Z,2.73
2017-01-24T12:18:06.029Z,2.76
2017-01-24T12:19:06.013Z,2.76
2017-01-24T12:20:05.984Z,2.76
2017-01-24T12:21:05.978Z,2.77
2017-01-24T12:22:05.942Z,2.76
2017-01-24T12:23:06.376Z,2.69
2017-01-24T12:24:06.301Z,2.74
2017-01-24T12:25:05.940Z,2.74
2017-01-24T12:26:05.869Z,2.63
2017-01-24T12:27:05.845Z,2.67
2017-01-24T12:28:06.225Z,2.66
2017-01-24T12:29:05.801Z,2.64
2017-01-24T12:30:06.188Z,2.64
2017-01-24T12:31:05.762Z,2.59
2017-01-24T12:32:05.745Z,2.64
2017-01-24T12:33:06.123Z,2.59
2017-01-24T12:34:05.722Z,2.69
2017-01-24T12:35:05.688Z,2.64
2017-01-24T12:36:05.663Z,2.71
2017-01-24T12:37:06.042Z,2.69
2017-01-24T12:38:05.627Z,2.64
2017-01-24T12:39:05.603Z,2.67
2017-01-24T12:40:05.591Z,2.7
2017-01-24T12:41:05.965Z,2.7
2017-01-24T12:42:05.595Z,2.64
2017-01-24T12:43:05.528Z,2.74
2017-01-24T12:44:05.558Z,2.74
2017-01-24T12:45:05.510Z,2.76
2017-01-24T12:46:05.467Z,2.76
2017-01-24T12:47:05.451Z,2.74
2017-01-24T12:48:05.429Z,2.64
2017-01-24T12:49:05.409Z,2.74
2017-01-24T12:50:05.388Z,2.63
2017-01-24T12:51:05.367Z,2.63
2017-01-24T12:52:05.747Z,2.63
2017-01-24T12:53:05.329Z,2.64
2017-01-24T12:54:05.312Z,2.69
2017-01-24T12:55:05.306Z,2.67
2017-01-24T12:56:05.276Z,2.69
2017-01-24T12:57:05.255Z,2.64
2017-01-24T12:58:05.226Z,2.63
2017-01-24T12:59:05.215Z,2.66
2017-01-24T13:00:05.188Z,2.59
2017-01-24T13:01:05.183Z,2.69
2017-01-24T13:02:05.152Z,2.58
2017-01-24T13:03:05.526Z,2.61
2017-01-24T13:04:05.110Z,2.61
2017-01-24T13:05:05.087Z,2.59
2017-01-24T13:06:05.470Z,2.63
2017-01-24T13:07:05.051Z,2.64
2017-01-24T13:08:05.027Z,2.66
2017-01-24T13:09:05.010Z,2.73
2017-01-24T13:10:05.387Z,2.66
2017-01-24T13:11:04.977Z,2.67
2017-01-24T13:12:04.951Z,2.66
2017-01-24T13:13:04.931Z,2.64
2017-01-24T13:14:04.916Z,2.64
2017-01-24T13:15:04.939Z,2.59
2017-01-24T13:16:04.873Z,2.64
2017-01-24T13:17:04.855Z,2.64
2017-01-24T13:18:04.836Z,2.66
2017-01-24T13:19:04.813Z,2.61
2017-01-24T13:20:04.794Z,2.71